Pagrindinis puslapis
METAR-TAF:

METAR-TAF

Oro uostai :

Oro uostas

Kachramanmarašas, Turkija

platuma: 37-32-20N, ilguma: 036-57-12E, Aukštis: 525 m

Dabartinis oras

Ataskaita buvo paskelbta 1 valandą ir 2 minutes, ne 18:50 UTC
Vėjas 4 kt iš Rytų
Temperatūra 16°C
Drėgmė 36%
Slėgis 1020 hPa
Matomumas 10 km arba daugiau
nėra debesų žemiau 1500 m ir nėra kamuolinių lietaus debesų

METAR: LTCN 221850Z 09004KT CAVOK 16/01 Q1020 NOSIG

Laikas: 22:52 (19:52 UTC)

Prognozė

Ataskaita buvo paskelbta 3 valandos ir 12 minutes, ne 16:40 UTC
Prognozė galioja nuo 22 metu 18 UTC su 23 metu 03 UTC
Vėjas 2 kt nuo kintamojo kryptimis
Matomumas 10 km arba daugiau
nėra debesų žemiau 1500 m ir nėra kamuolinių lietaus debesų

TAF: LTCN 221640Z 2218/2303 VRB02KT CAVOK

Orai ataskaitas ir orų prognozės (METAR, TAF).

turimą stotys yra geltonos ir raudonos taškus žemėlapyje.

Perkelti pele per norėdami pamatyti stoties vardą.

Tada spustelėkite, norėdami matyti oro stebėjimo ir prognozės.

Norėdami pakeisti žemėlapį: spustelėkite ant žalios mygtukų su juodo kryžiaus žemyn,; žalią mygtuką su brūkšneliu, jei norite nutolinti; arba žalių rodyklių gretimoms žemėlapius.


METAR-TAF: